createdAt,value
2023-02-13T00:01:00.539Z,22.42
2023-02-13T00:03:28.635Z,23.55
2023-02-13T00:05:55.576Z,24.25
2023-02-13T00:08:22.491Z,23.90
2023-02-13T00:10:49.320Z,22.42
2023-02-13T00:13:16.677Z,23.98
2023-02-13T00:15:44.920Z,23.98
2023-02-13T00:18:11.904Z,23.80
2023-02-13T00:20:39.101Z,22.90
2023-02-13T00:23:05.923Z,24.83
2023-02-13T00:25:32.939Z,23.17
2023-02-13T00:27:59.836Z,23.58
2023-02-13T00:30:26.897Z,24.20
2023-02-13T00:32:55.165Z,22.88
2023-02-13T00:35:22.013Z,24.77
2023-02-13T00:37:49.748Z,24.20
2023-02-13T00:40:16.786Z,23.00
2023-02-13T00:42:46.139Z,23.95
2023-02-13T00:45:17.778Z,24.40
2023-02-13T00:47:46.185Z,23.63
2023-02-13T00:50:14.692Z,25.33
2023-02-13T00:52:41.670Z,25.30
2023-02-13T00:55:08.612Z,22.70
2023-02-13T00:57:37.802Z,24.63
2023-02-13T01:00:05.660Z,23.75
2023-02-13T01:02:32.491Z,23.92
2023-02-13T01:04:59.231Z,23.60
2023-02-13T01:07:28.854Z,21.90
2023-02-13T01:09:55.786Z,23.15
2023-02-13T01:12:23.889Z,24.48
2023-02-13T01:14:50.653Z,24.02
2023-02-13T01:17:19.431Z,24.30
2023-02-13T01:19:46.285Z,23.33
2023-02-13T01:22:13.214Z,23.98
2023-02-13T01:24:41.501Z,23.40
2023-02-13T01:27:08.382Z,22.90
2023-02-13T01:29:35.387Z,22.98
2023-02-13T01:32:04.074Z,23.98
2023-02-13T01:34:31.346Z,22.63
2023-02-13T01:37:00.319Z,22.65
2023-02-13T01:39:30.476Z,22.95
2023-02-13T01:41:58.963Z,22.58
2023-02-13T01:44:49.364Z,22.98
2023-02-13T01:47:22.313Z,23.15
2023-02-13T01:49:49.988Z,25.17
2023-02-13T01:52:17.741Z,23.88
2023-02-13T01:54:45.929Z,22.70
2023-02-13T01:57:18.561Z,23.65
2023-02-13T01:59:49.381Z,23.23
2023-02-13T02:02:17.047Z,22.52
2023-02-13T02:04:45.932Z,23.55
2023-02-13T02:07:24.619Z,23.27
2023-02-13T02:09:56.244Z,23.15
2023-02-13T02:12:27.469Z,21.75
2023-02-13T02:14:58.246Z,24.33
2023-02-13T02:17:26.496Z,23.17
2023-02-13T02:20:10.173Z,22.67
2023-02-13T02:23:03.222Z,24.77
2023-02-13T02:26:19.253Z,23.88
2023-02-13T02:29:35.844Z,23.60
2023-02-13T02:32:30.566Z,22.85
2023-02-13T02:35:10.111Z,22.40
2023-02-13T02:37:58.484Z,24.13
2023-02-13T02:40:33.869Z,24.15
2023-02-13T02:43:15.473Z,25.05
2023-02-13T02:45:53.250Z,24.23
2023-02-13T02:48:29.718Z,23.38
2023-02-13T02:51:03.207Z,25.45
2023-02-13T02:53:37.877Z,24.45
2023-02-13T02:56:11.721Z,25.75
2023-02-13T02:58:44.197Z,23.98
2023-02-13T03:01:20.546Z,24.75
2023-02-13T03:03:49.709Z,24.63
2023-02-13T03:06:25.902Z,23.58
2023-02-13T03:08:55.774Z,24.70
2023-02-13T03:11:25.124Z,25.15
2023-02-13T03:13:55.305Z,24.15
2023-02-13T03:16:28.524Z,24.58
2023-02-13T03:18:58.724Z,23.75
2023-02-13T03:21:44.422Z,24.25
2023-02-13T03:24:32.391Z,24.02
2023-02-13T03:27:08.929Z,24.50
2023-02-13T03:29:46.172Z,24.42
2023-02-13T03:32:27.435Z,25.35
2023-02-13T03:35:21.313Z,24.38
2023-02-13T03:37:57.642Z,24.08
2023-02-13T03:40:31.823Z,24.98
2023-02-13T03:43:08.633Z,24.25
2023-02-13T03:45:38.804Z,24.67
2023-02-13T03:48:09.543Z,23.83
2023-02-13T03:50:43.288Z,25.83
2023-02-13T03:53:13.152Z,25.00
2023-02-13T03:55:46.065Z,25.48
2023-02-13T03:58:17.813Z,25.33
2023-02-13T04:00:52.573Z,26.40
2023-02-13T04:03:26.845Z,26.02
2023-02-13T04:06:03.643Z,24.52
2023-02-13T04:08:30.981Z,24.50
2023-02-13T04:11:07.519Z,26.15
2023-02-13T04:13:41.856Z,25.08
2023-02-13T04:16:16.392Z,24.65
2023-02-13T04:18:46.302Z,24.10
2023-02-13T04:21:14.826Z,25.00
2023-02-13T04:23:41.936Z,25.23
2023-02-13T04:26:16.720Z,24.23
2023-02-13T04:28:45.379Z,24.23
2023-02-13T04:31:15.404Z,24.98
2023-02-13T04:33:44.888Z,25.70
2023-02-13T04:36:17.294Z,24.27
2023-02-13T04:38:46.542Z,24.00
2023-02-13T04:41:13.615Z,24.23
2023-02-13T04:43:40.993Z,24.58
2023-02-13T04:46:12.759Z,24.60
2023-02-13T04:48:50.404Z,24.05
2023-02-13T04:51:19.499Z,25.27
2023-02-13T04:53:48.059Z,23.75
2023-02-13T04:56:22.786Z,23.27
2023-02-13T04:58:49.979Z,24.05
2023-02-13T05:01:21.534Z,23.48
2023-02-13T05:03:48.818Z,23.35
2023-02-13T05:06:15.693Z,23.90
2023-02-13T05:08:42.911Z,22.23
2023-02-13T05:11:11.483Z,24.40
2023-02-13T05:13:38.368Z,23.50
2023-02-13T05:16:07.340Z,23.20
2023-02-13T05:18:34.416Z,23.60
2023-02-13T05:21:01.304Z,23.05
2023-02-13T05:23:31.573Z,22.85
2023-02-13T05:25:58.694Z,24.67
2023-02-13T05:28:33.245Z,23.92
2023-02-13T05:31:04.290Z,24.13
2023-02-13T05:33:31.587Z,22.98
2023-02-13T05:35:59.789Z,23.05
2023-02-13T05:38:26.757Z,25.10
2023-02-13T05:40:54.843Z,23.83
2023-02-13T05:43:21.994Z,24.92
2023-02-13T05:46:00.900Z,23.85
2023-02-13T05:48:28.003Z,23.60
2023-02-13T05:50:55.368Z,25.52
2023-02-13T05:54:05.014Z,24.50
2023-02-13T05:56:34.098Z,23.33
2023-02-13T05:59:07.458Z,24.13
2023-02-13T06:01:37.057Z,23.83
2023-02-13T06:04:07.158Z,24.63
2023-02-13T06:06:34.232Z,24.08
2023-02-13T06:09:07.728Z,23.75
2023-02-13T06:11:34.577Z,23.65
2023-02-13T06:14:01.320Z,23.67
2023-02-13T06:16:29.266Z,24.40
2023-02-13T06:19:05.506Z,24.83
2023-02-13T06:21:42.909Z,23.65
2023-02-13T06:24:12.539Z,23.17
2023-02-13T06:26:49.159Z,23.27
2023-02-13T06:29:15.985Z,24.42
2023-02-13T06:31:51.310Z,23.75
2023-02-13T06:34:38.282Z,23.75
2023-02-13T06:40:07.056Z,24.13
2023-02-13T06:42:37.134Z,23.47
2023-02-13T06:45:26.849Z,23.23
2023-02-13T06:47:54.177Z,24.08
2023-02-13T06:50:22.634Z,24.90
2023-02-13T06:52:51.562Z,24.52
2023-02-13T06:55:19.102Z,23.60
2023-02-13T06:58:03.644Z,23.35
2023-02-13T07:00:34.408Z,23.45
2023-02-13T07:03:03.592Z,25.38
2023-02-13T07:05:32.024Z,24.30
2023-02-13T07:07:59.314Z,23.55
2023-02-13T07:10:30.745Z,22.83
2023-02-13T07:18:51.597Z,23.63
2023-02-13T07:21:21.678Z,23.27
2023-02-13T07:23:48.877Z,24.52
2023-02-13T07:26:15.887Z,23.02
2023-02-13T07:28:42.900Z,23.25
2023-02-13T07:31:11.516Z,22.92
2023-02-13T07:33:38.862Z,22.45
2023-02-13T07:36:06.494Z,23.27
2023-02-13T07:38:36.516Z,24.60
2023-02-13T07:41:04.897Z,23.98
2023-02-13T07:43:32.022Z,23.73
2023-02-13T07:46:00.430Z,23.65
2023-02-13T07:48:29.693Z,23.73
2023-02-13T07:51:00.851Z,23.38
2023-02-13T07:53:28.941Z,22.00
2023-02-13T07:55:57.910Z,22.73
2023-02-13T07:58:25.357Z,22.45
2023-02-13T08:00:58.423Z,23.67
2023-02-13T08:03:31.816Z,24.25
2023-02-13T08:06:19.827Z,23.40
2023-02-13T08:08:47.395Z,22.15
2023-02-13T08:11:27.098Z,22.17
2023-02-13T08:13:53.852Z,23.30
2023-02-13T08:16:22.621Z,23.10
2023-02-13T08:18:50.668Z,22.05
2023-02-13T08:21:18.880Z,23.70
2023-02-13T08:23:46.182Z,24.27
2023-02-13T08:26:13.008Z,24.35
2023-02-13T08:28:41.219Z,23.85
2023-02-13T08:31:11.936Z,23.40
2023-02-13T08:33:39.284Z,23.50
2023-02-13T08:36:07.467Z,24.67
2023-02-13T08:38:35.193Z,24.15
2023-02-13T08:41:02.322Z,25.42
2023-02-13T08:43:29.104Z,24.80
2023-02-13T08:46:00.319Z,24.13
2023-02-13T08:48:28.536Z,25.08
2023-02-13T08:50:55.574Z,24.65
2023-02-13T08:53:22.693Z,23.98
2023-02-13T08:55:53.469Z,23.88
2023-02-13T08:58:20.579Z,24.80
2023-02-13T09:00:47.849Z,23.40
2023-02-13T09:03:21.358Z,24.73
2023-02-13T09:05:48.302Z,24.27
2023-02-13T09:08:17.912Z,24.95
2023-02-13T09:10:46.537Z,21.57
2023-02-13T09:13:13.683Z,23.10
2023-02-13T09:15:41.158Z,24.42
2023-02-13T09:18:08.526Z,23.00
2023-02-13T09:20:36.790Z,23.20
2023-02-13T09:23:06.194Z,22.92
2023-02-13T09:25:39.019Z,21.40
2023-02-13T09:28:06.341Z,21.95
2023-02-13T09:30:35.113Z,21.98
2023-02-13T09:33:01.803Z,23.35
2023-02-13T09:35:28.783Z,22.30
2023-02-13T09:37:57.065Z,21.50
2023-02-13T09:40:28.737Z,21.75
2023-02-13T09:43:06.936Z,23.50
2023-02-13T09:45:35.443Z,22.42
2023-02-13T09:48:02.632Z,21.02
2023-02-13T09:50:34.757Z,21.20
2023-02-13T09:53:04.667Z,21.63
2023-02-13T09:55:40.495Z,22.00
2023-02-13T09:58:16.861Z,20.88
2023-02-13T10:00:50.790Z,21.58
2023-02-13T10:03:31.341Z,21.23
2023-02-13T10:06:06.174Z,20.92
2023-02-13T10:08:58.103Z,20.95
2023-02-13T10:11:46.507Z,21.80
2023-02-13T10:14:20.210Z,20.92
2023-02-13T10:16:51.296Z,21.42
2023-02-13T11:19:53.072Z,20.15
2023-02-13T11:22:30.240Z,19.83
2023-02-13T11:24:59.476Z,20.10
2023-02-13T11:27:30.605Z,20.08
2023-02-13T11:29:58.997Z,20.48
2023-02-13T11:32:27.838Z,19.80
2023-02-13T11:34:56.624Z,20.63
2023-02-13T11:37:26.760Z,20.17
2023-02-13T11:39:55.057Z,20.05
2023-02-13T11:42:27.305Z,20.20
2023-02-13T11:44:58.553Z,20.20
2023-02-13T11:50:05.145Z,18.90
2023-02-13T11:52:34.746Z,20.80
2023-02-13T11:55:05.852Z,20.92
2023-02-13T11:57:34.699Z,20.40
2023-02-13T12:00:28.067Z,20.52
2023-02-13T12:02:55.393Z,20.23
2023-02-13T12:05:52.027Z,20.13
2023-02-13T12:08:20.901Z,20.08
2023-02-13T12:10:48.037Z,19.70
2023-02-13T12:13:26.093Z,20.58
2023-02-13T12:16:00.146Z,19.38
2023-02-13T12:18:36.410Z,20.20
2023-02-13T12:21:10.747Z,18.42
2023-02-13T12:23:48.049Z,18.65
2023-02-13T12:26:26.807Z,18.92
2023-02-13T12:29:07.615Z,18.17
2023-02-13T12:31:47.253Z,19.10
2023-02-13T12:34:49.974Z,18.77
2023-02-13T12:37:34.125Z,19.40
2023-02-13T12:40:25.930Z,19.77
2023-02-13T12:43:15.026Z,18.20
2023-02-13T12:45:51.569Z,18.83
2023-02-13T12:48:32.550Z,19.65
2023-02-13T12:51:11.050Z,18.52
2023-02-13T12:53:56.576Z,19.08
2023-02-13T12:56:44.031Z,19.27
2023-02-13T12:59:24.269Z,18.98
2023-02-13T13:02:22.258Z,19.58
2023-02-13T13:05:03.123Z,19.60
2023-02-13T13:07:46.361Z,18.85
2023-02-13T13:10:31.070Z,18.55
2023-02-13T13:13:10.378Z,18.95
2023-02-13T13:15:49.134Z,19.30
2023-02-13T13:18:32.271Z,18.27
2023-02-13T13:21:10.249Z,18.92
2023-02-13T13:23:51.698Z,18.85
2023-02-13T13:29:02.317Z,19.30
2023-02-13T13:31:30.589Z,19.80
2023-02-13T13:34:09.138Z,19.98
2023-02-13T13:36:45.395Z,20.15
2023-02-13T13:39:27.893Z,21.20
2023-02-13T13:42:04.723Z,22.38
2023-02-13T13:45:00.566Z,23.75
2023-02-13T13:47:40.888Z,22.85
2023-02-13T13:50:19.161Z,23.63
2023-02-13T13:53:08.135Z,22.75
2023-02-13T13:56:16.459Z,21.77
2023-02-13T13:58:48.685Z,22.25
2023-02-13T14:01:25.812Z,21.23
2023-02-13T14:03:54.786Z,21.65
2023-02-13T14:06:27.118Z,21.98
2023-02-13T14:09:00.506Z,21.55
2023-02-13T14:11:55.755Z,20.65
2023-02-13T14:14:51.422Z,21.42
2023-02-13T14:17:57.394Z,20.63
2023-02-13T14:20:37.567Z,21.50
2023-02-13T14:23:26.452Z,21.50
2023-02-13T14:26:30.543Z,21.23
2023-02-13T14:29:08.311Z,22.02
2023-02-13T14:32:02.818Z,22.08
2023-02-13T14:34:34.347Z,21.33
2023-02-13T14:37:19.658Z,22.17
2023-02-13T14:40:34.225Z,22.30
2023-02-13T14:43:15.538Z,20.33
2023-02-13T14:45:49.985Z,21.35
2023-02-13T14:48:17.695Z,21.50
2023-02-13T14:50:52.561Z,22.67
2023-02-13T14:53:24.043Z,20.83
2023-02-13T14:55:57.235Z,21.15
2023-02-13T14:58:29.697Z,21.65
2023-02-13T15:01:02.716Z,21.42
2023-02-13T15:03:37.773Z,21.27
2023-02-13T15:06:17.518Z,23.05
2023-02-13T15:08:49.422Z,22.85
2023-02-13T15:11:36.173Z,22.73
2023-02-13T15:14:24.247Z,22.23
2023-02-13T15:16:56.123Z,23.33
2023-02-13T15:19:24.548Z,22.88
2023-02-13T15:21:59.191Z,23.65
2023-02-13T15:24:27.002Z,24.35
2023-02-13T15:26:59.394Z,24.60
2023-02-13T15:29:40.985Z,24.23
2023-02-13T15:32:24.843Z,25.30
2023-02-13T15:34:54.116Z,25.98
2023-02-13T15:37:27.245Z,26.73
2023-02-13T15:39:54.572Z,25.90
2023-02-13T15:42:22.134Z,26.02
2023-02-13T15:44:51.344Z,26.55
2023-02-13T15:47:30.627Z,25.55
2023-02-13T15:49:58.306Z,25.83
2023-02-13T15:52:32.386Z,25.33
2023-02-13T15:54:59.295Z,25.45
2023-02-13T15:57:27.353Z,26.02
2023-02-13T15:59:55.497Z,25.60
2023-02-13T16:02:27.368Z,25.75
2023-02-13T16:05:03.726Z,26.20
2023-02-13T16:07:47.912Z,27.38
2023-02-13T16:10:15.579Z,28.10
2023-02-13T16:12:47.043Z,27.27
2023-02-13T16:17:48.179Z,26.73
2023-02-13T16:20:21.168Z,27.42
2023-02-13T16:22:55.808Z,27.23
2023-02-13T16:25:27.890Z,27.00
2023-02-13T16:28:00.093Z,26.73
2023-02-13T16:30:34.176Z,27.73
2023-02-13T16:33:29.538Z,27.48
2023-02-13T16:35:58.093Z,28.00
2023-02-13T16:38:36.175Z,26.67
2023-02-13T16:41:06.441Z,27.85
2023-02-13T16:43:53.776Z,28.73
2023-02-13T16:46:25.135Z,27.67
2023-02-13T16:51:33.239Z,27.42
2023-02-13T16:54:05.489Z,28.88
2023-02-13T16:56:42.775Z,35.72
2023-02-13T16:59:23.521Z,33.83
2023-02-13T17:02:04.157Z,31.48
2023-02-13T17:04:31.325Z,31.70
2023-02-13T17:07:00.450Z,31.67
2023-02-13T17:09:31.735Z,31.55
2023-02-13T17:11:58.790Z,30.08
2023-02-13T17:14:25.747Z,28.70
2023-02-13T17:19:51.398Z,29.75
2023-02-13T17:22:26.236Z,30.17
2023-02-13T17:25:01.153Z,28.50
2023-02-13T17:27:28.028Z,29.85
2023-02-13T17:29:54.883Z,30.08
2023-02-13T17:32:25.558Z,29.92
2023-02-13T17:34:53.053Z,30.92
2023-02-13T17:37:22.549Z,30.70
2023-02-13T17:39:50.418Z,32.10
2023-02-13T17:42:22.161Z,29.90
2023-02-13T17:44:49.315Z,29.65
2023-02-13T17:47:16.908Z,29.67
2023-02-13T17:49:46.565Z,30.80
2023-02-13T17:52:17.018Z,30.98
2023-02-13T17:54:44.290Z,30.57
2023-02-13T17:57:14.883Z,30.83
2023-02-13T17:59:43.719Z,31.38
2023-02-13T18:02:15.257Z,31.92
2023-02-13T18:07:13.746Z,33.88
2023-02-13T18:09:40.712Z,35.42
2023-02-13T18:12:12.234Z,36.72
2023-02-13T18:14:39.290Z,36.22
2023-02-13T18:17:07.758Z,38.47
2023-02-13T18:19:34.989Z,35.83
2023-02-13T18:22:01.822Z,35.75
2023-02-13T18:24:29.622Z,36.00
2023-02-13T18:27:05.709Z,35.45
2023-02-13T18:29:32.500Z,31.45
2023-02-13T18:31:59.335Z,31.88
2023-02-13T18:34:29.128Z,32.67
2023-02-13T18:36:56.041Z,32.63
2023-02-13T18:39:23.017Z,31.80
2023-02-13T18:41:49.921Z,30.02
2023-02-13T18:44:28.179Z,30.40
2023-02-13T18:46:57.813Z,30.75
2023-02-13T18:49:26.034Z,30.65
2023-02-13T18:51:55.297Z,31.55
2023-02-13T18:54:22.082Z,32.88
2023-02-13T18:56:49.643Z,32.80
2023-02-13T18:59:16.979Z,34.25
2023-02-13T19:01:44.789Z,34.45
2023-02-13T19:04:12.076Z,35.20
2023-02-13T19:06:43.054Z,35.58
2023-02-13T19:09:19.825Z,33.47
2023-02-13T19:11:46.679Z,35.00
2023-02-13T19:14:14.789Z,33.97
2023-02-13T19:16:42.429Z,34.97
2023-02-13T19:19:09.307Z,34.58
2023-02-13T19:21:40.868Z,40.00
2023-02-13T19:24:11.250Z,44.95
2023-02-13T19:26:41.527Z,44.13
2023-02-13T19:29:09.025Z,39.45
2023-02-13T19:31:35.848Z,36.35
2023-02-13T19:34:03.191Z,37.55
2023-02-13T19:36:30.820Z,36.03
2023-02-13T19:39:02.161Z,33.28
2023-02-13T19:41:29.235Z,34.35
2023-02-13T19:44:01.508Z,32.83
2023-02-13T19:46:30.268Z,33.17
2023-02-13T19:48:57.688Z,32.63
2023-02-13T19:51:29.524Z,34.45
2023-02-13T19:53:59.956Z,34.15
2023-02-13T19:56:27.658Z,34.47
2023-02-13T19:58:54.904Z,34.67
2023-02-13T20:01:27.577Z,35.85
2023-02-13T20:03:55.012Z,36.17
2023-02-13T20:06:26.649Z,35.15
2023-02-13T20:08:54.726Z,36.45
2023-02-13T20:11:22.141Z,38.65
2023-02-13T20:14:00.475Z,36.13
2023-02-13T20:16:29.463Z,35.03
2023-02-13T20:18:56.761Z,35.78
2023-02-13T20:21:23.861Z,34.65
2023-02-13T20:23:52.597Z,34.17
2023-02-13T20:26:19.900Z,34.63
2023-02-13T20:28:49.385Z,32.50
2023-02-13T20:31:21.063Z,33.90
2023-02-13T20:33:50.897Z,34.80
2023-02-13T20:36:19.825Z,33.33
2023-02-13T20:38:47.080Z,36.78
2023-02-13T20:41:16.649Z,36.72
2023-02-13T20:43:44.969Z,35.75
2023-02-13T20:46:12.433Z,38.40
2023-02-13T20:48:40.701Z,37.55
2023-02-13T20:51:11.417Z,37.17
2023-02-13T20:53:39.680Z,36.15
2023-02-13T20:56:12.280Z,39.15
2023-02-13T20:58:40.681Z,39.67
2023-02-13T21:01:12.456Z,36.80
2023-02-13T21:03:39.373Z,35.95
2023-02-13T21:06:09.637Z,35.55
2023-02-13T21:08:38.592Z,38.35
2023-02-13T21:11:07.024Z,35.40
2023-02-13T21:13:35.310Z,35.88
2023-02-13T21:16:05.334Z,38.08
2023-02-13T21:18:32.458Z,34.67
2023-02-13T21:21:00.431Z,35.80
2023-02-13T21:23:29.322Z,35.28
2023-02-13T21:25:56.027Z,36.10
2023-02-13T21:28:23.732Z,34.92
2023-02-13T21:30:50.582Z,35.08
2023-02-13T21:33:17.769Z,35.28
2023-02-13T21:35:44.786Z,37.63
2023-02-13T21:38:12.421Z,37.08
2023-02-13T21:40:42.779Z,36.40
2023-02-13T21:43:10.288Z,36.67
2023-02-13T21:45:37.047Z,37.17
2023-02-13T21:48:04.582Z,36.97
2023-02-13T21:50:32.686Z,36.10
2023-02-13T21:52:59.481Z,37.05
2023-02-13T21:55:26.463Z,36.67
2023-02-13T21:57:54.986Z,34.92
2023-02-13T22:00:22.325Z,35.00
2023-02-13T22:02:49.230Z,35.20
2023-02-13T22:05:16.133Z,36.00
2023-02-13T22:07:43.263Z,35.85
2023-02-13T22:10:10.868Z,36.80
2023-02-13T22:12:37.812Z,37.35
2023-02-13T22:15:07.800Z,35.40
2023-02-13T22:17:37.504Z,36.33
2023-02-13T22:20:05.482Z,36.35
2023-02-13T22:22:32.458Z,36.83
2023-02-13T22:24:59.261Z,34.75
2023-02-13T22:27:26.094Z,34.08
2023-02-13T22:29:53.552Z,33.70
2023-02-13T22:32:22.383Z,34.05
2023-02-13T22:34:49.311Z,36.90
2023-02-13T22:37:16.613Z,35.28
2023-02-13T22:39:43.495Z,36.50
2023-02-13T22:42:10.682Z,33.72
2023-02-13T22:44:37.773Z,38.53
2023-02-13T22:47:06.453Z,39.10
2023-02-13T22:49:36.847Z,33.83
2023-02-13T22:52:03.962Z,34.70
2023-02-13T22:54:31.089Z,34.97
2023-02-13T22:56:58.469Z,35.85
2023-02-13T22:59:26.096Z,35.42
2023-02-13T23:01:52.899Z,34.75
2023-02-13T23:04:21.049Z,33.97
2023-02-13T23:06:49.556Z,34.50
2023-02-13T23:09:16.396Z,35.33
2023-02-13T23:11:43.315Z,33.00
2023-02-13T23:14:10.742Z,36.20
2023-02-13T23:16:38.407Z,33.05
2023-02-13T23:19:06.227Z,32.80
2023-02-13T23:21:34.334Z,34.65
2023-02-13T23:24:02.613Z,35.25
2023-02-13T23:26:29.358Z,34.15
2023-02-13T23:28:56.431Z,35.63
2023-02-13T23:31:23.224Z,33.88
2023-02-13T23:33:49.998Z,34.03
2023-02-13T23:36:17.017Z,32.33
2023-02-13T23:38:44.284Z,36.45
2023-02-13T23:41:12.927Z,33.45
2023-02-13T23:43:39.928Z,33.83
2023-02-13T23:46:07.657Z,37.33
2023-02-13T23:48:34.986Z,37.28
2023-02-13T23:51:02.365Z,33.85
2023-02-13T23:53:29.539Z,35.95
2023-02-13T23:55:56.690Z,36.95
2023-02-13T23:58:27.925Z,34.28
